createdAt,value
2023-01-19T04:10:57.092Z,97278.34
2023-01-19T04:13:30.623Z,97267.56
2023-01-19T04:16:07.847Z,97255.29
2023-01-19T04:18:35.910Z,97239.70
2023-01-19T04:21:11.388Z,97231.59
2023-01-19T04:23:53.135Z,97232.79
2023-01-19T04:27:14.430Z,97233.98
2023-01-19T04:30:32.411Z,97252.31
2023-01-19T04:33:09.205Z,97268.21
2023-01-19T04:35:39.480Z,97276.73
2023-01-19T04:38:15.491Z,97275.05
2023-01-19T04:41:23.446Z,97271.79
2023-01-19T04:43:56.259Z,97252.96
2023-01-19T04:46:23.968Z,97245.50
2023-01-19T04:49:00.419Z,97237.94
2023-01-19T04:52:08.451Z,97246.41
2023-01-19T04:55:29.534Z,97241.82
2023-01-19T04:58:08.420Z,97236.02
2023-01-19T05:00:39.228Z,97243.62
2023-01-19T05:03:25.801Z,97246.23
2023-01-19T05:06:02.994Z,97245.95
2023-01-19T05:08:37.559Z,97249.18
2023-01-19T05:11:15.310Z,97244.96
2023-01-19T05:14:04.356Z,97244.84
2023-01-19T05:16:31.753Z,97227.84
2023-01-19T05:18:59.270Z,97206.86
2023-01-19T05:21:47.727Z,97204.79
2023-01-19T05:24:19.372Z,97198.25
2023-01-19T05:26:49.800Z,97206.20
2023-01-19T05:29:25.083Z,97218.06
2023-01-19T05:31:58.677Z,97207.05
2023-01-19T05:34:52.233Z,97189.52
2023-01-19T05:37:24.892Z,97186.15
2023-01-19T05:40:07.171Z,97190.25
2023-01-19T05:42:42.564Z,97202.63
2023-01-19T05:45:12.543Z,97192.46
2023-01-19T05:47:40.021Z,97190.20
2023-01-19T05:50:19.440Z,97197.48
2023-01-19T05:52:46.670Z,97193.95
2023-01-19T05:55:15.525Z,97195.97
2023-01-19T05:57:45.601Z,97199.48
2023-01-19T06:00:16.952Z,97195.24
2023-01-19T06:02:44.673Z,97200.46
2023-01-19T06:05:20.937Z,97201.70
2023-01-19T06:07:51.280Z,97204.61
2023-01-19T06:10:21.146Z,97214.20
2023-01-19T06:13:09.476Z,97225.66
2023-01-19T06:15:43.257Z,97239.36
2023-01-19T06:18:18.929Z,97239.63
2023-01-19T06:21:00.284Z,97233.73
2023-01-19T06:23:39.030Z,97228.05
2023-01-19T06:26:15.182Z,97229.16
2023-01-19T06:28:42.869Z,97225.50
2023-01-19T06:31:13.422Z,97230.09
2023-01-19T06:33:40.766Z,97231.77
2023-01-19T06:36:22.151Z,97243.45
2023-01-19T06:38:59.103Z,97243.09
2023-01-19T06:41:29.978Z,97240.06
2023-01-19T06:44:00.449Z,97237.64
2023-01-19T06:46:27.937Z,97245.98
2023-01-19T06:49:05.694Z,97240.52
2023-01-19T06:51:41.458Z,97243.74
2023-01-19T06:54:09.349Z,97228.77
2023-01-19T06:56:45.887Z,97212.09
2023-01-19T06:59:16.743Z,97207.14
2023-01-19T07:01:43.946Z,97214.20
2023-01-19T07:04:15.417Z,97211.79
2023-01-19T07:06:42.903Z,97210.67
2023-01-19T07:09:14.630Z,97214.98
2023-01-19T07:11:54.677Z,97215.63
2023-01-19T07:14:25.751Z,97213.04
2023-01-19T07:16:59.482Z,97211.63
2023-01-19T07:19:29.325Z,97220.41
2023-01-19T07:21:57.941Z,97219.20
2023-01-19T07:24:33.885Z,97220.11
2023-01-19T07:27:04.722Z,97214.63
2023-01-19T07:29:39.754Z,97204.02
2023-01-19T07:32:07.625Z,97196.61
2023-01-19T07:34:37.265Z,97189.17
2023-01-19T07:37:04.569Z,97191.27
2023-01-19T07:39:36.751Z,97192.46
2023-01-19T07:42:10.161Z,97190.49
2023-01-19T07:44:43.689Z,97182.73
2023-01-19T07:47:18.575Z,97190.03
2023-01-19T07:49:58.190Z,97181.27
2023-01-19T07:52:25.443Z,97164.23
2023-01-19T07:55:03.717Z,97159.86
2023-01-19T07:57:46.279Z,97149.75
2023-01-19T08:00:46.484Z,97167.08
2023-01-19T08:03:23.905Z,97160.14
2023-01-19T08:05:57.128Z,97161.20
2023-01-19T08:08:50.477Z,97155.77
2023-01-19T08:11:38.038Z,97145.92
2023-01-19T08:14:21.434Z,97144.69
2023-01-19T08:17:19.517Z,97148.12
2023-01-19T08:19:51.919Z,97148.66
2023-01-19T08:22:19.306Z,97145.10
2023-01-19T08:24:50.541Z,97135.41
2023-01-19T08:27:20.351Z,97124.96
2023-01-19T08:29:49.782Z,97118.88
2023-01-19T08:32:19.410Z,97120.18
2023-01-19T08:34:52.582Z,97129.86
2023-01-19T08:37:19.774Z,97142.37
2023-01-19T08:39:47.208Z,97144.80
2023-01-19T08:42:20.259Z,97140.33
2023-01-19T08:44:57.508Z,97146.16
2023-01-19T08:47:25.156Z,97142.77
2023-01-19T08:49:52.323Z,97146.83
2023-01-19T08:52:19.781Z,97137.26
2023-01-19T08:54:50.013Z,97141.83
2023-01-19T08:57:17.292Z,97145.13
2023-01-19T08:59:47.393Z,97144.34
2023-01-19T09:02:14.586Z,97143.13
2023-01-19T09:04:50.432Z,97134.82
2023-01-19T09:07:18.645Z,97139.31
2023-01-19T09:09:46.507Z,97145.29
2023-01-19T09:12:13.618Z,97144.89
2023-01-19T09:14:41.016Z,97125.14
2023-01-19T09:17:08.431Z,97132.80
2023-01-19T09:19:35.776Z,97144.13
2023-01-19T09:22:02.948Z,97149.15
2023-01-19T09:24:30.362Z,97139.40
2023-01-19T09:26:57.498Z,97121.56
2023-01-19T09:29:27.741Z,97109.48
2023-01-19T09:31:55.333Z,97113.65
2023-01-19T09:34:23.212Z,97113.77
2023-01-19T09:36:51.023Z,97123.34
2023-01-19T09:39:18.891Z,97122.91
2023-01-19T09:42:01.604Z,97130.50
2023-01-19T09:44:29.779Z,97132.65
2023-01-19T09:46:59.199Z,97138.16
2023-01-19T09:49:31.405Z,97130.06
2023-01-19T09:51:58.699Z,97120.08
2023-01-19T09:54:41.133Z,97117.53
2023-01-19T09:57:12.034Z,97127.33
2023-01-19T09:59:39.885Z,97134.52
2023-01-19T10:02:36.447Z,97133.54
2023-01-19T13:13:31.077Z,97064.61
2023-01-19T13:16:20.812Z,97057.84
2023-01-19T13:19:03.961Z,97051.97
2023-01-19T13:21:35.824Z,97065.34
2023-01-19T13:24:04.500Z,97065.48
2023-01-19T13:26:39.299Z,97068.77
2023-01-19T13:29:33.873Z,97075.08
2023-01-19T13:32:06.510Z,97070.06
2023-01-19T13:34:41.222Z,97060.85
2023-01-19T13:37:16.550Z,97053.59
2023-01-19T13:39:46.358Z,97050.65
2023-01-19T13:42:28.460Z,97050.59
2023-01-19T13:44:58.256Z,97059.77
2023-01-19T13:47:39.569Z,97059.11
2023-01-19T13:50:07.640Z,97055.80
2023-01-19T13:52:42.461Z,97060.30
2023-01-19T13:55:13.929Z,97071.45
2023-01-19T13:57:42.396Z,97072.98
2023-01-19T14:00:12.074Z,97072.70
2023-01-19T14:03:21.305Z,97073.06
2023-01-19T14:05:50.614Z,97073.73
2023-01-19T14:08:27.269Z,97072.48
2023-01-19T14:10:56.356Z,97067.57
2023-01-19T14:13:34.562Z,97059.44
2023-01-19T14:16:11.657Z,97062.59
2023-01-19T14:18:38.918Z,97064.30
2023-01-19T14:21:15.235Z,97063.68
2023-01-19T14:24:02.414Z,97077.71
2023-01-19T14:26:53.160Z,97083.58
2023-01-19T14:29:31.820Z,97078.67
2023-01-19T14:32:14.875Z,97086.52
2023-01-19T14:35:04.490Z,97084.21
2023-01-19T14:37:34.269Z,97086.89
2023-01-19T14:40:15.710Z,97081.08
2023-01-19T14:42:47.610Z,97095.05
2023-01-19T14:45:17.639Z,97097.55
2023-01-19T14:47:45.550Z,97110.69
2023-01-19T14:50:20.728Z,97121.78
2023-01-19T14:53:01.040Z,97128.89
2023-01-19T14:55:36.762Z,97130.41
2023-01-19T14:58:15.326Z,97135.80
2023-01-19T15:00:46.202Z,97129.88
2023-01-19T15:03:13.563Z,97127.13
2023-01-19T15:05:45.308Z,97116.66
2023-01-19T15:08:39.085Z,97111.65
2023-01-19T15:11:23.681Z,97101.18
2023-01-19T15:13:51.018Z,97098.44
2023-01-19T15:16:18.319Z,97102.05
2023-01-19T15:18:51.008Z,97111.12
2023-01-19T15:21:26.929Z,97118.86
2023-01-19T15:23:54.745Z,97114.67
2023-01-19T15:26:23.899Z,97108.05
2023-01-19T15:28:51.542Z,97112.07
2023-01-19T15:31:28.504Z,97116.00
2023-01-19T15:34:05.167Z,97108.41
2023-01-19T15:36:39.811Z,97103.24
2023-01-19T15:39:16.804Z,97104.93
2023-01-19T15:41:44.309Z,97105.08
2023-01-19T15:44:11.366Z,97105.91
2023-01-19T15:46:47.463Z,97110.13
2023-01-19T15:49:26.390Z,97111.35
2023-01-19T15:51:53.444Z,97122.85
2023-01-19T15:54:20.767Z,97122.41
2023-01-19T15:56:52.651Z,97118.06
2023-01-19T15:59:28.944Z,97121.45
2023-01-19T16:01:59.420Z,97121.40
2023-01-19T16:04:26.684Z,97123.67
2023-01-19T16:06:53.765Z,97109.36
2023-01-19T16:09:20.807Z,97102.44
2023-01-19T16:11:50.485Z,97091.89
2023-01-19T16:14:17.822Z,97097.23
2023-01-19T16:16:46.208Z,97110.84
2023-01-19T16:19:16.608Z,97109.15
2023-01-19T16:21:49.158Z,97113.06
2023-01-19T16:24:19.806Z,97120.65
2023-01-19T16:26:46.856Z,97112.33
2023-01-19T16:29:16.752Z,97113.11
2023-01-19T16:31:45.496Z,97114.03
2023-01-19T16:34:15.680Z,97120.27
2023-01-19T16:36:46.101Z,97119.33
2023-01-19T16:39:17.148Z,97108.91
2023-01-19T16:41:46.069Z,97110.78
2023-01-19T16:44:15.889Z,97108.65
2023-01-19T16:46:44.535Z,97113.06
2023-01-19T16:49:15.296Z,97120.15
2023-01-19T16:51:42.929Z,97130.67
2023-01-19T16:54:17.269Z,97127.30
2023-01-19T16:56:44.364Z,97130.77
2023-01-19T16:59:12.795Z,97130.77
2023-01-19T17:01:44.894Z,97132.40
2023-01-19T17:04:14.814Z,97125.46
2023-01-19T17:06:41.875Z,97128.60
2023-01-19T17:09:12.333Z,97128.80
2023-01-19T17:11:44.338Z,97118.87
2023-01-19T17:14:20.586Z,97129.94
2023-01-19T17:16:47.928Z,97140.62
2023-01-19T17:19:20.368Z,97138.04
2023-01-19T17:21:54.296Z,97136.14
2023-01-19T17:24:24.077Z,97124.86
2023-01-19T17:26:51.041Z,97121.43
2023-01-19T17:29:18.721Z,97123.73
2023-01-19T17:31:46.860Z,97121.02
2023-01-19T17:34:14.021Z,97121.08
2023-01-19T17:36:41.254Z,97133.08
2023-01-19T17:39:11.394Z,97129.33
2023-01-19T17:41:47.844Z,97137.71
2023-01-19T17:44:28.991Z,97152.95
2023-01-19T17:46:58.035Z,97150.54
2023-01-19T17:49:26.919Z,97159.35
2023-01-19T17:51:55.836Z,97165.86
2023-01-19T17:54:22.961Z,97165.00
2023-01-19T17:56:51.032Z,97157.20
2023-01-19T17:59:18.245Z,97163.63
2023-01-19T18:01:47.983Z,97164.64
2023-01-19T18:04:15.247Z,97164.27
2023-01-19T18:06:51.560Z,97156.54
2023-01-19T18:09:18.973Z,97167.33
2023-01-19T18:11:46.152Z,97181.90
2023-01-19T18:14:13.693Z,97189.77
2023-01-19T18:16:40.796Z,97189.18
2023-01-19T18:19:10.159Z,97195.38
2023-01-19T18:21:39.295Z,97207.99
2023-01-19T18:24:09.936Z,97215.10
2023-01-19T18:26:38.158Z,97221.39
2023-01-19T18:29:08.853Z,97223.95
2023-01-19T18:31:36.346Z,97220.48
2023-01-19T18:34:06.735Z,97218.73
2023-01-19T18:36:34.430Z,97226.90
2023-01-19T18:39:04.943Z,97223.90
2023-01-19T18:41:40.814Z,97226.76
2023-01-19T18:44:11.421Z,97236.48
2023-01-19T18:46:41.121Z,97254.45
2023-01-19T18:49:17.594Z,97255.14
2023-01-19T18:51:52.724Z,97246.41
2023-01-19T18:54:20.193Z,97238.34
2023-01-19T18:56:50.183Z,97232.73
2023-01-19T18:59:17.660Z,97242.67
2023-01-19T19:01:55.758Z,97251.80
2023-01-19T19:04:22.810Z,97260.55
2023-01-19T19:06:50.166Z,97255.51
2023-01-19T19:09:20.561Z,97260.45
2023-01-19T21:59:20.217Z,97493.02
2023-01-19T22:01:50.509Z,97497.79
2023-01-19T22:04:20.084Z,97498.70
2023-01-19T22:06:47.346Z,97507.81
2023-01-19T22:09:14.779Z,97512.61
2023-01-19T22:12:00.604Z,97520.16
2023-01-19T22:14:34.175Z,97539.23
2023-01-19T22:17:01.457Z,97544.27
2023-01-19T22:19:31.374Z,97552.69
2023-01-19T22:22:03.876Z,97565.64
2023-01-19T22:24:35.915Z,97567.30
2023-01-19T22:27:08.920Z,97562.73
2023-01-19T22:29:41.587Z,97560.78
2023-01-19T22:32:09.124Z,97560.74
2023-01-19T22:34:36.584Z,97551.86
2023-01-19T22:37:06.504Z,97547.83
2023-01-19T22:39:38.892Z,97550.23
2023-01-19T22:42:11.034Z,97552.14
2023-01-19T22:45:01.347Z,97555.77
2023-01-19T22:47:39.670Z,97558.63
2023-01-19T22:50:08.144Z,97563.91
2023-01-19T22:52:35.468Z,97566.06
2023-01-19T22:55:02.890Z,97573.91
2023-01-19T22:57:38.362Z,97570.56
2023-01-19T23:00:10.690Z,97569.27
2023-01-19T23:02:37.687Z,97567.77
2023-01-19T23:05:10.997Z,97569.13
2023-01-19T23:07:40.405Z,97581.88
2023-01-19T23:10:08.819Z,97584.52
2023-01-19T23:12:36.728Z,97592.89
2023-01-19T23:15:06.785Z,97596.14
2023-01-19T23:17:36.037Z,97604.65
2023-01-19T23:20:05.046Z,97605.77
2023-01-19T23:22:32.799Z,97610.41
2023-01-19T23:24:59.772Z,97629.62
2023-01-19T23:27:27.299Z,97635.38
2023-01-19T23:29:54.620Z,97648.05
2023-01-19T23:32:24.075Z,97654.02
2023-01-19T23:34:56.988Z,97656.95
2023-01-19T23:37:24.195Z,97659.42
2023-01-19T23:40:13.670Z,97668.73
2023-01-19T23:42:40.856Z,97673.38
2023-01-19T23:45:08.744Z,97684.44
2023-01-19T23:47:46.460Z,97691.77
2023-01-19T23:50:13.964Z,97699.42
2023-01-19T23:52:41.020Z,97704.89
2023-01-19T23:55:12.170Z,97699.54
2023-01-19T23:57:50.158Z,97698.56
